createdAt,value
2022-10-04T00:00:24.947Z,55.30
2022-10-04T00:02:51.700Z,55.40
2022-10-04T00:05:18.691Z,55.30
2022-10-04T00:07:47.394Z,55.30
2022-10-04T00:10:26.837Z,55.30
2022-10-04T00:12:58.368Z,55.20
2022-10-04T00:15:32.647Z,55.30
2022-10-04T00:18:18.986Z,55.30
2022-10-04T00:20:50.466Z,55.20
2022-10-04T00:23:23.077Z,55.40
2022-10-04T00:25:49.925Z,55.30
2022-10-04T00:28:29.064Z,55.20
2022-10-04T00:31:14.520Z,55.20
2022-10-04T00:34:04.105Z,55.30
2022-10-04T00:36:44.440Z,55.30
2022-10-04T00:39:11.983Z,55.20
2022-10-04T00:41:46.744Z,55.30
2022-10-04T00:44:39.026Z,55.20
2022-10-04T00:47:33.084Z,55.20
2022-10-04T00:50:21.859Z,55.20
2022-10-04T00:52:56.957Z,55.20
2022-10-04T00:55:35.817Z,55.20
2022-10-04T00:58:03.915Z,55.20
2022-10-04T01:00:33.261Z,55.20
2022-10-04T01:03:10.640Z,55.20
2022-10-04T01:05:39.579Z,55.20
2022-10-04T01:08:17.622Z,55.10
2022-10-04T01:11:06.046Z,55.10
2022-10-04T01:13:50.193Z,55.10
2022-10-04T01:16:30.012Z,55.10
2022-10-04T01:18:56.620Z,55.10
2022-10-04T01:21:28.448Z,55.70
2022-10-04T01:23:58.004Z,55.00
2022-10-04T01:26:30.243Z,55.00
2022-10-04T01:29:13.789Z,55.10
2022-10-04T01:31:45.116Z,55.00
2022-10-04T01:34:13.378Z,55.00
2022-10-04T01:36:39.922Z,55.00
2022-10-04T01:39:06.490Z,55.00
2022-10-04T01:41:46.630Z,54.90
2022-10-04T01:44:28.109Z,54.90
2022-10-04T01:46:56.646Z,55.00
2022-10-04T01:49:26.472Z,54.90
2022-10-04T01:52:05.167Z,54.80
2022-10-04T01:54:42.878Z,54.90
2022-10-04T01:57:20.523Z,54.90
2022-10-04T01:59:51.596Z,54.90
2022-10-04T02:02:39.072Z,54.90
2022-10-04T02:05:07.073Z,54.90
2022-10-04T02:07:33.716Z,54.90
2022-10-04T02:10:03.006Z,54.90
2022-10-04T02:12:31.271Z,54.90
2022-10-04T02:14:59.882Z,54.90
2022-10-04T02:17:28.407Z,54.90
2022-10-04T02:19:55.040Z,55.50
2022-10-04T02:22:21.612Z,54.90
2022-10-04T02:24:48.566Z,54.90
2022-10-04T02:27:15.186Z,54.90
2022-10-04T02:29:41.856Z,54.90
2022-10-04T02:32:27.446Z,54.90
2022-10-04T02:34:54.872Z,54.90
2022-10-04T02:37:23.537Z,54.80
2022-10-04T02:39:58.549Z,54.80
2022-10-04T02:42:25.436Z,54.80
2022-10-04T02:44:56.651Z,54.80
2022-10-04T02:47:24.963Z,54.70
2022-10-04T02:49:56.224Z,54.80
2022-10-04T02:52:30.985Z,54.80
2022-10-04T02:55:09.436Z,54.80
2022-10-04T02:57:35.975Z,54.90
2022-10-04T03:00:23.608Z,54.90
2022-10-04T03:03:23.423Z,55.00
2022-10-04T03:06:14.533Z,55.00
2022-10-04T03:08:43.758Z,54.90
2022-10-04T03:11:11.254Z,55.00
2022-10-04T03:13:41.680Z,55.00
2022-10-04T03:16:08.286Z,55.00
2022-10-04T03:18:35.839Z,55.00
2022-10-04T03:21:02.752Z,55.00
2022-10-04T03:23:30.094Z,55.00
2022-10-04T03:26:03.468Z,55.00
2022-10-04T03:28:30.099Z,55.00
2022-10-04T03:30:57.964Z,55.00
2022-10-04T03:33:25.303Z,55.00
2022-10-04T03:35:53.867Z,55.00
2022-10-04T03:38:20.498Z,55.00
2022-10-04T03:41:05.396Z,55.00
2022-10-04T03:43:34.061Z,55.00
2022-10-04T03:46:01.096Z,55.10
2022-10-04T03:48:31.274Z,55.00
2022-10-04T03:50:57.824Z,55.00
2022-10-04T03:53:27.037Z,55.10
2022-10-04T03:55:53.573Z,55.00
2022-10-04T03:58:20.383Z,55.00
2022-10-04T04:01:01.866Z,55.00
2022-10-04T04:03:28.630Z,55.00
2022-10-04T04:05:57.666Z,55.60
2022-10-04T04:08:28.713Z,55.00
2022-10-04T04:10:56.344Z,55.00
2022-10-04T04:13:45.684Z,55.00
2022-10-04T04:16:12.320Z,55.00
2022-10-04T04:18:41.927Z,55.00
2022-10-04T04:21:08.578Z,55.00
2022-10-04T04:23:58.961Z,55.10
2022-10-04T04:26:28.531Z,55.10
2022-10-04T04:28:57.764Z,55.00
2022-10-04T04:31:32.235Z,55.00
2022-10-04T04:34:00.570Z,54.90
2022-10-04T04:36:28.607Z,54.90
2022-10-04T04:39:25.818Z,54.80
2022-10-04T04:41:52.540Z,54.60
2022-10-04T04:44:19.392Z,54.70
2022-10-04T04:46:46.790Z,54.50
2022-10-04T04:49:15.108Z,54.40
2022-10-04T04:51:48.015Z,54.30
2022-10-04T04:54:15.474Z,54.40
2022-10-04T04:56:42.036Z,54.40
2022-10-04T04:59:08.700Z,54.40
2022-10-04T05:01:36.829Z,54.30
2022-10-04T05:04:13.466Z,54.30
2022-10-04T05:06:41.605Z,55.00
2022-10-04T05:09:29.104Z,55.80
2022-10-04T05:11:57.967Z,56.20
2022-10-04T05:14:24.556Z,56.00
2022-10-04T05:16:54.717Z,55.60
2022-10-04T05:19:24.026Z,55.40
2022-10-04T05:21:52.517Z,55.20
2022-10-04T05:24:37.399Z,55.00
2022-10-04T05:27:05.853Z,55.10
2022-10-04T05:29:37.785Z,55.00
2022-10-04T05:32:23.400Z,55.10
2022-10-04T05:34:50.959Z,55.30
2022-10-04T05:37:28.301Z,55.10
2022-10-04T05:40:03.873Z,54.90
2022-10-04T05:42:45.561Z,55.00
2022-10-04T05:45:25.041Z,55.00
2022-10-04T05:47:53.569Z,55.10
2022-10-04T05:50:35.882Z,55.00
2022-10-04T05:53:21.178Z,55.00
2022-10-04T05:56:11.628Z,55.00
2022-10-04T05:59:02.824Z,55.00
2022-10-04T06:01:50.334Z,55.00
2022-10-04T06:04:40.226Z,55.10
2022-10-04T06:07:13.648Z,55.10
2022-10-04T06:10:00.656Z,55.10
2022-10-04T06:12:58.193Z,55.10
2022-10-04T06:15:43.933Z,55.10
2022-10-04T06:18:33.657Z,55.10
2022-10-04T06:21:20.504Z,55.10
2022-10-04T06:24:11.120Z,55.10
2022-10-04T06:26:47.412Z,55.10
2022-10-04T06:29:15.896Z,55.10
2022-10-04T06:31:59.645Z,55.20
2022-10-04T06:34:41.680Z,55.20
2022-10-04T06:37:46.088Z,55.30
2022-10-04T06:40:22.426Z,55.30
2022-10-04T06:43:11.700Z,55.40
2022-10-04T06:46:04.094Z,55.30
2022-10-04T06:48:59.557Z,55.30
2022-10-04T06:51:56.809Z,55.50
2022-10-04T06:54:47.284Z,55.40
2022-10-04T06:57:41.691Z,55.40
2022-10-04T07:00:23.567Z,55.50
2022-10-04T07:02:58.840Z,55.50
2022-10-04T07:05:57.916Z,55.40
2022-10-04T07:08:36.723Z,55.30
2022-10-04T07:11:18.892Z,55.30
2022-10-04T07:14:03.808Z,55.30
2022-10-04T07:16:47.540Z,55.40
2022-10-04T07:19:20.072Z,55.40
2022-10-04T07:21:56.036Z,55.40
2022-10-04T07:24:32.612Z,55.30
2022-10-04T07:26:59.180Z,55.30
2022-10-04T07:29:31.990Z,55.30
2022-10-04T07:32:05.510Z,55.20
2022-10-04T07:34:45.346Z,55.30
2022-10-04T07:37:12.895Z,55.30
2022-10-04T07:39:50.365Z,55.20
2022-10-04T07:42:38.583Z,55.20
2022-10-04T07:45:15.170Z,55.20
2022-10-04T07:47:43.035Z,55.10
2022-10-04T07:50:25.771Z,55.10
2022-10-04T07:53:10.682Z,55.00
2022-10-04T07:55:39.349Z,55.20
2022-10-04T07:58:18.130Z,55.00
2022-10-04T08:00:49.377Z,55.00
2022-10-04T08:03:41.673Z,55.10
2022-10-04T08:06:18.921Z,55.10
2022-10-04T08:08:58.104Z,55.00
2022-10-04T08:11:45.772Z,55.00
2022-10-04T08:14:51.727Z,54.80
2022-10-04T08:17:25.093Z,54.80
2022-10-04T08:20:20.530Z,54.70
2022-10-04T08:23:05.632Z,54.80
2022-10-04T08:25:45.380Z,54.90
2022-10-04T08:28:58.601Z,54.90
2022-10-04T08:31:27.910Z,54.90
2022-10-04T08:34:40.119Z,54.90
2022-10-04T08:37:17.768Z,54.90
2022-10-04T08:40:13.086Z,54.90
2022-10-04T08:43:25.508Z,54.80
2022-10-04T08:46:23.151Z,54.80
2022-10-04T08:48:58.773Z,54.80
2022-10-04T08:52:02.582Z,54.80
2022-10-04T08:54:37.948Z,54.70
2022-10-04T08:57:26.360Z,54.60
2022-10-04T09:00:04.106Z,54.60
2022-10-04T09:02:38.443Z,54.60
2022-10-04T09:05:26.460Z,54.50
2022-10-04T09:08:11.641Z,54.50
2022-10-04T09:11:04.920Z,54.50
2022-10-04T09:13:55.264Z,54.50
2022-10-04T09:16:46.815Z,54.40
2022-10-04T09:19:21.650Z,54.40
2022-10-04T09:21:57.217Z,54.40
2022-10-04T09:24:33.702Z,55.10
2022-10-04T09:27:05.430Z,54.50
2022-10-04T09:29:56.650Z,54.60
2022-10-04T09:32:48.978Z,54.60
2022-10-04T09:35:25.003Z,54.50
2022-10-04T09:38:01.565Z,54.50
2022-10-04T09:40:52.056Z,54.60
2022-10-04T09:43:27.526Z,54.50
2022-10-04T09:46:16.113Z,54.50
2022-10-04T09:48:53.483Z,54.50
2022-10-04T09:51:56.407Z,54.50
2022-10-04T09:54:56.713Z,54.50
2022-10-04T09:57:42.213Z,54.50
2022-10-04T10:00:11.933Z,54.40
2022-10-04T10:03:02.427Z,54.40
2022-10-04T10:06:07.179Z,54.40
2022-10-04T10:08:49.012Z,54.40
2022-10-04T10:11:45.351Z,54.40
2022-10-04T10:14:24.624Z,54.40
2022-10-04T10:17:14.593Z,54.40
2022-10-04T10:19:49.969Z,54.40
2022-10-04T10:22:42.649Z,54.40
2022-10-04T10:25:20.664Z,54.40
2022-10-04T10:28:18.229Z,54.40
2022-10-04T10:31:08.455Z,54.50
2022-10-04T10:33:58.048Z,54.60
2022-10-04T10:36:59.802Z,54.60
2022-10-04T10:39:26.258Z,54.70
2022-10-04T10:42:20.403Z,54.70
2022-10-04T10:45:19.739Z,54.80
2022-10-04T10:48:13.773Z,54.90
2022-10-04T10:51:20.464Z,54.90
2022-10-04T10:54:30.163Z,54.90
2022-10-04T10:57:06.161Z,54.90
2022-10-04T10:59:50.976Z,55.00
2022-10-04T11:02:49.361Z,54.90
2022-10-04T11:05:48.096Z,54.80
2022-10-04T11:08:27.665Z,54.80
2022-10-04T11:11:07.011Z,54.70
2022-10-04T11:14:14.735Z,54.70
2022-10-04T11:16:49.202Z,54.70
2022-10-04T11:19:48.996Z,54.60
2022-10-04T11:22:44.260Z,54.70
2022-10-04T11:25:34.908Z,54.70
2022-10-04T11:28:06.813Z,54.60
2022-10-04T11:30:45.342Z,54.70
2022-10-04T11:33:52.416Z,54.70
2022-10-04T11:36:25.900Z,54.80
2022-10-04T11:39:31.727Z,54.80
2022-10-04T11:42:23.086Z,55.00
2022-10-04T11:45:17.160Z,55.20
2022-10-04T11:48:11.268Z,55.70
2022-10-04T11:50:43.197Z,55.70
2022-10-04T11:53:29.990Z,55.40
2022-10-04T11:56:34.011Z,55.50
2022-10-04T11:59:39.235Z,55.60
2022-10-04T12:02:32.235Z,55.60
2022-10-04T12:05:19.502Z,56.00
2022-10-04T12:07:57.017Z,55.70
2022-10-04T12:10:24.809Z,55.50
2022-10-04T12:13:14.113Z,55.50
2022-10-04T12:16:00.621Z,55.70
2022-10-04T12:18:52.995Z,55.70
2022-10-04T12:21:30.366Z,55.80
2022-10-04T12:24:10.462Z,55.70
2022-10-04T12:26:55.742Z,55.50
2022-10-04T12:29:32.968Z,55.30
2022-10-04T12:32:16.388Z,55.10
2022-10-04T12:34:49.926Z,55.20
2022-10-04T12:37:36.096Z,55.30
2022-10-04T12:40:19.485Z,55.40
2022-10-04T12:42:58.680Z,55.50
2022-10-04T12:45:34.505Z,55.40
2022-10-04T12:48:26.014Z,55.60
2022-10-04T12:50:56.794Z,55.50
2022-10-04T12:53:34.486Z,55.40
2022-10-04T12:56:14.372Z,55.50
2022-10-04T12:59:00.737Z,56.20
2022-10-04T13:02:02.874Z,55.60
2022-10-04T13:04:59.114Z,55.60
2022-10-04T13:07:33.779Z,55.90
2022-10-04T13:10:28.170Z,55.70
2022-10-04T13:13:16.560Z,55.70
2022-10-04T13:18:59.041Z,55.60
2022-10-04T13:21:50.405Z,55.50
2022-10-04T13:24:28.578Z,55.60
2022-10-04T13:26:58.869Z,55.60
2022-10-04T13:29:32.874Z,55.50
2022-10-04T13:32:18.598Z,55.60
2022-10-04T13:34:55.964Z,55.60
2022-10-04T13:37:48.141Z,55.60
2022-10-04T13:40:23.545Z,55.70
2022-10-04T13:43:08.834Z,55.60
2022-10-04T13:45:48.195Z,55.60
2022-10-04T13:48:26.882Z,55.60
2022-10-04T13:51:09.818Z,55.60
2022-10-04T13:54:10.315Z,55.60
2022-10-04T13:56:55.300Z,55.60
2022-10-04T13:59:34.602Z,55.90
2022-10-04T14:02:26.170Z,55.70
2022-10-04T14:05:15.940Z,55.70
2022-10-04T14:08:06.458Z,55.90
2022-10-04T14:10:56.692Z,56.30
2022-10-04T14:13:42.996Z,56.80
2022-10-04T14:17:03.278Z,55.90
2022-10-04T14:19:47.016Z,56.10
2022-10-04T14:22:28.702Z,56.50
2022-10-04T14:25:35.695Z,56.40
2022-10-04T14:28:33.402Z,56.00
2022-10-04T14:31:20.012Z,55.90
2022-10-04T14:34:14.259Z,55.80
2022-10-04T14:36:57.760Z,55.80
2022-10-04T14:39:36.620Z,55.80
2022-10-04T14:42:24.189Z,55.80
2022-10-04T14:45:27.948Z,55.80
2022-10-04T14:48:29.489Z,55.90
2022-10-04T14:51:16.726Z,55.90
2022-10-04T14:54:07.524Z,55.90
2022-10-04T14:56:43.222Z,55.80
2022-10-04T14:59:36.480Z,55.90
2022-10-04T15:02:31.525Z,56.50
2022-10-04T15:05:12.928Z,55.80
2022-10-04T15:07:41.373Z,55.80
2022-10-04T15:10:31.913Z,55.80
2022-10-04T15:13:18.549Z,55.80
2022-10-04T15:15:58.946Z,55.70
2022-10-04T15:18:56.737Z,55.70
2022-10-04T15:21:35.183Z,55.70
2022-10-04T15:24:16.265Z,55.60
2022-10-04T15:27:07.431Z,55.70
2022-10-04T15:29:58.099Z,55.60
2022-10-04T15:32:35.927Z,55.60
2022-10-04T15:35:13.154Z,55.60
2022-10-04T15:38:17.667Z,55.60
2022-10-04T15:41:07.988Z,55.50
2022-10-04T15:43:53.918Z,55.50
2022-10-04T15:46:51.867Z,55.40
2022-10-04T15:49:55.197Z,56.00
2022-10-04T15:52:39.897Z,55.40
2022-10-04T15:55:22.766Z,55.30
2022-10-04T15:58:20.272Z,55.30
2022-10-04T16:00:48.977Z,55.30
2022-10-04T16:03:34.053Z,55.30
2022-10-04T16:06:31.089Z,55.30
2022-10-04T16:09:18.215Z,55.20
2022-10-04T16:11:55.294Z,55.10
2022-10-04T16:14:46.801Z,55.10
2022-10-04T16:17:26.127Z,55.10
2022-10-04T16:20:17.981Z,55.10
2022-10-04T16:23:33.940Z,55.00
2022-10-04T16:26:05.321Z,55.00
2022-10-04T16:28:44.774Z,55.10
2022-10-04T16:31:45.231Z,55.00
2022-10-04T16:34:26.004Z,55.70
2022-10-04T16:36:59.413Z,55.00
2022-10-04T16:39:59.336Z,55.00
2022-10-04T16:42:44.558Z,55.00
2022-10-04T16:45:11.746Z,55.00
2022-10-04T16:47:56.266Z,55.10
2022-10-04T16:51:00.634Z,55.00
2022-10-04T16:54:03.533Z,55.10
2022-10-04T16:56:32.764Z,55.10
2022-10-04T16:59:03.380Z,55.10
2022-10-04T17:02:08.109Z,55.20
2022-10-04T17:04:39.163Z,55.10
2022-10-04T17:07:13.725Z,55.20
2022-10-04T17:09:54.362Z,55.00
2022-10-04T17:12:56.056Z,55.00
2022-10-04T17:15:28.403Z,55.10
2022-10-04T17:18:31.437Z,55.10
2022-10-04T17:21:03.996Z,55.10
2022-10-04T17:23:48.624Z,55.10
2022-10-04T17:26:50.839Z,55.10
2022-10-04T17:29:38.181Z,55.20
2022-10-04T17:32:24.066Z,55.20
2022-10-04T17:35:09.733Z,55.20
2022-10-04T17:37:56.995Z,55.20
2022-10-04T17:40:53.688Z,55.30
2022-10-04T17:46:37.465Z,55.50
2022-10-04T17:49:29.534Z,55.70
2022-10-04T17:52:14.648Z,55.60
2022-10-04T17:55:05.600Z,55.60
2022-10-04T17:57:39.490Z,55.60
2022-10-04T18:00:10.508Z,55.80
2022-10-04T18:02:52.514Z,55.90
2022-10-04T18:05:28.214Z,56.20
2022-10-04T18:08:01.553Z,57.00
2022-10-04T18:10:33.365Z,56.40
2022-10-04T18:13:11.297Z,56.80
2022-10-04T18:15:53.313Z,56.70
2022-10-04T18:18:21.141Z,56.60
2022-10-04T18:20:53.476Z,56.50
2022-10-04T18:23:30.244Z,57.10
2022-10-04T18:25:59.113Z,56.40
2022-10-04T18:28:25.712Z,56.40
2022-10-04T18:30:52.313Z,56.30
2022-10-04T18:33:26.334Z,56.10
2022-10-04T18:36:16.290Z,56.00
2022-10-04T18:38:43.759Z,56.10
2022-10-04T18:41:21.093Z,56.00
2022-10-04T18:43:59.569Z,55.90
2022-10-04T18:46:26.152Z,55.90
2022-10-04T18:48:59.361Z,55.90
2022-10-04T18:51:29.701Z,55.90
2022-10-04T18:54:10.379Z,55.80
2022-10-04T18:56:46.935Z,55.80
2022-10-04T18:59:48.880Z,55.80
2022-10-04T19:02:34.867Z,55.80
2022-10-04T19:05:14.575Z,55.80
2022-10-04T19:08:17.887Z,55.80
2022-10-04T19:10:51.290Z,55.80
2022-10-04T19:13:20.587Z,55.80
2022-10-04T19:16:11.601Z,55.90
2022-10-04T19:19:07.347Z,56.80
2022-10-04T19:21:55.515Z,56.20
2022-10-04T19:24:35.921Z,55.90
2022-10-04T19:27:26.332Z,55.60
2022-10-04T19:29:57.014Z,55.60
2022-10-04T19:32:33.983Z,55.50
2022-10-04T19:35:14.476Z,55.50
2022-10-04T19:37:47.528Z,55.30
2022-10-04T19:40:18.227Z,55.30
2022-10-04T19:43:07.300Z,55.30
2022-10-04T19:46:17.115Z,55.20
2022-10-04T19:48:51.096Z,55.10
2022-10-04T19:51:44.078Z,55.10
2022-10-04T19:54:15.934Z,55.00
2022-10-04T19:56:45.692Z,55.00
2022-10-04T19:59:18.910Z,55.50
2022-10-04T20:01:45.882Z,55.10
2022-10-04T20:04:35.169Z,55.30
2022-10-04T20:07:23.737Z,56.00
2022-10-04T20:09:51.407Z,55.70
2022-10-04T20:12:37.605Z,55.70
2022-10-04T20:15:17.119Z,55.70
2022-10-04T20:17:44.750Z,55.50
2022-10-04T20:20:15.740Z,55.30
2022-10-04T20:22:53.554Z,55.40
2022-10-04T20:25:49.161Z,55.40
2022-10-04T20:28:27.676Z,55.40
2022-10-04T20:31:00.764Z,55.40
2022-10-04T20:33:33.237Z,55.40
2022-10-04T20:36:00.701Z,56.30
2022-10-04T20:38:53.339Z,55.70
2022-10-04T20:41:29.160Z,55.80
2022-10-04T20:44:01.384Z,55.80
2022-10-04T20:46:35.480Z,55.80
2022-10-04T20:49:02.077Z,55.80
2022-10-04T20:51:30.089Z,55.80
2022-10-04T20:53:56.657Z,55.90
2022-10-04T20:56:26.555Z,55.90
2022-10-04T20:58:55.147Z,55.80
2022-10-04T21:01:36.442Z,55.90
2022-10-04T21:04:46.725Z,55.90
2022-10-04T21:07:18.169Z,55.80
2022-10-04T21:09:44.994Z,55.80
2022-10-04T21:12:33.824Z,55.80
2022-10-04T21:15:19.793Z,55.80
2022-10-04T21:18:07.012Z,55.80
2022-10-04T21:20:43.473Z,56.30
2022-10-04T21:23:17.475Z,55.80
2022-10-04T21:25:45.145Z,55.70
2022-10-04T21:28:30.730Z,55.60
2022-10-04T21:30:57.367Z,55.70
2022-10-04T21:33:23.926Z,55.60
2022-10-04T21:35:51.740Z,55.60
2022-10-04T21:38:18.771Z,55.70
2022-10-04T21:40:45.308Z,55.60
2022-10-04T21:43:11.946Z,55.60
2022-10-04T21:45:38.580Z,55.60
2022-10-04T21:48:05.156Z,55.60
2022-10-04T21:50:31.699Z,55.60
2022-10-04T21:52:59.650Z,55.60
2022-10-04T21:55:26.180Z,55.60
2022-10-04T21:57:52.734Z,55.60
2022-10-04T22:00:19.281Z,55.50
2022-10-04T22:02:45.898Z,55.60
2022-10-04T22:05:12.846Z,55.50
2022-10-04T22:07:39.388Z,55.50
2022-10-04T22:10:06.033Z,55.40
2022-10-04T22:12:32.576Z,55.40
2022-10-04T22:14:59.112Z,55.40
2022-10-04T22:17:25.671Z,55.40
2022-10-04T22:19:52.918Z,55.40
2022-10-04T22:22:19.510Z,55.30
2022-10-04T22:24:46.054Z,55.40
2022-10-04T22:27:14.059Z,55.40
2022-10-04T22:29:40.711Z,55.40
2022-10-04T22:32:19.609Z,55.40
2022-10-04T22:34:46.165Z,55.30
2022-10-04T22:37:12.733Z,55.40
2022-10-04T22:39:39.299Z,55.30
2022-10-04T22:42:05.875Z,55.20
2022-10-04T22:44:36.532Z,55.30
2022-10-04T22:47:04.109Z,55.30
2022-10-04T22:49:35.502Z,55.50
2022-10-04T22:52:23.195Z,55.10
2022-10-04T22:54:50.977Z,55.20
2022-10-04T22:57:18.105Z,55.10
2022-10-04T22:59:49.010Z,55.10
2022-10-04T23:02:23.939Z,55.10
2022-10-04T23:04:51.977Z,55.10
2022-10-04T23:07:19.204Z,55.10
2022-10-04T23:09:45.744Z,55.10
2022-10-04T23:12:12.284Z,55.00
2022-10-04T23:14:39.177Z,55.10
2022-10-04T23:17:31.062Z,55.00
2022-10-04T23:20:01.492Z,55.00
2022-10-04T23:22:29.130Z,55.00
2022-10-04T23:24:55.896Z,55.10
2022-10-04T23:27:22.624Z,55.00
2022-10-04T23:29:50.810Z,55.00
2022-10-04T23:32:17.964Z,55.00
2022-10-04T23:34:46.079Z,55.00
2022-10-04T23:37:20.665Z,55.00
2022-10-04T23:39:47.240Z,55.00
2022-10-04T23:42:20.964Z,55.10
2022-10-04T23:44:48.394Z,55.00
2022-10-04T23:47:16.331Z,55.10
2022-10-04T23:49:42.932Z,55.10
2022-10-04T23:52:14.337Z,55.10
2022-10-04T23:54:40.878Z,55.10
2022-10-04T23:57:09.771Z,55.10
2022-10-04T23:59:36.304Z,55.20
